< < Back
Terminal Aerodrome Forecast


Current Version              Previous Versions:   1  2  3  4  5  6  7  8  9  

Terminal Aerodrome Forecast

200
FTUS42 KCHS 011739
TAFSAV
TAF
KSAV 011739Z 0118/0218 16012G18KT P6SM FEW035 SCT100
     FM020300 18014G20KT P6SM SCT030 BKN050
     FM020900 21015G22KT 6SM -RA BKN020 OVC050
     FM021200 24016G25KT 5SM -RA OVC015
     FM021600 28020G28KT P6SM OVC050=



Latest METAR

105
SAUS80 KWBC 012200 RRH
MTRSAV
METAR KSAV 012153Z 17011G19KT 10SM FEW045 SCT200 19/09 A3007 RMK AO2
SLP181 T01940089


USA.gov is the U.S. government's official web portal to all federal, state and local government web resources and services.